createdAt,value
2022-12-07T00:02:22.008Z,10.67
2022-12-07T00:07:27.840Z,9.07
2022-12-07T00:12:30.455Z,9.43
2022-12-07T00:17:34.630Z,9.63
2022-12-07T00:22:37.024Z,10.00
2022-12-07T00:27:39.414Z,8.87
2022-12-07T00:32:41.934Z,8.47
2022-12-07T00:37:44.264Z,10.20
2022-12-07T00:42:46.649Z,6.63
2022-12-07T00:47:49.005Z,11.40
2022-12-07T00:52:51.409Z,8.87
2022-12-07T00:57:53.835Z,9.73
2022-12-07T01:02:56.342Z,6.87
2022-12-07T01:07:58.874Z,8.97
2022-12-07T01:13:01.395Z,9.80
2022-12-07T01:18:03.883Z,7.50
2022-12-07T01:23:06.374Z,8.10
2022-12-07T01:28:08.744Z,8.27
2022-12-07T01:33:11.049Z,8.10
2022-12-07T01:38:13.441Z,7.87
2022-12-07T01:43:20.186Z,8.97
2022-12-07T01:48:28.402Z,8.77
2022-12-07T01:53:32.897Z,8.70
2022-12-07T01:58:35.627Z,9.00
2022-12-07T02:03:41.859Z,9.90
2022-12-07T02:08:44.762Z,9.87
2022-12-07T02:13:48.874Z,7.17
2022-12-07T02:19:02.880Z,7.07
2022-12-07T02:24:17.544Z,8.63
2022-12-07T02:29:29.709Z,10.07
2022-12-07T02:34:49.835Z,7.67
2022-12-07T02:40:02.683Z,9.00
2022-12-07T02:45:07.842Z,6.63
2022-12-07T02:50:11.049Z,9.87
2022-12-07T02:55:16.514Z,9.60
2022-12-07T03:00:22.182Z,7.80
2022-12-07T03:05:27.347Z,7.43
2022-12-07T03:10:59.210Z,7.67
2022-12-07T03:16:29.762Z,5.73
2022-12-07T03:21:41.975Z,8.33
2022-12-07T03:26:50.098Z,7.03
2022-12-07T03:32:08.069Z,6.80
2022-12-07T03:37:30.216Z,5.30
2022-12-07T03:42:34.638Z,5.50
2022-12-07T03:47:43.135Z,6.23
2022-12-07T03:52:56.325Z,7.40
2022-12-07T03:58:03.254Z,5.07
2022-12-07T04:03:06.019Z,6.33
2022-12-07T04:08:08.614Z,5.17
2022-12-07T04:13:11.088Z,6.03
2022-12-07T04:18:13.514Z,4.80
2022-12-07T04:23:15.893Z,4.50
2022-12-07T04:28:18.434Z,5.67
2022-12-07T04:33:20.800Z,6.13
2022-12-07T04:38:23.236Z,4.93
2022-12-07T04:43:25.725Z,5.47
2022-12-07T04:48:28.625Z,6.17
2022-12-07T04:53:31.014Z,5.90
2022-12-07T04:58:33.406Z,6.03
2022-12-07T05:03:37.065Z,5.57
2022-12-07T05:08:40.062Z,5.17
2022-12-07T05:13:42.514Z,6.20
2022-12-07T05:18:45.111Z,6.60
2022-12-07T05:23:47.575Z,8.77
2022-12-07T05:28:55.017Z,7.27
2022-12-07T05:33:57.453Z,5.77
2022-12-07T05:39:00.293Z,8.20
2022-12-07T05:44:03.059Z,8.77
2022-12-07T05:49:05.587Z,10.37
2022-12-07T05:54:08.042Z,6.47
2022-12-07T05:59:25.984Z,7.20
2022-12-07T06:04:31.481Z,6.33
2022-12-07T06:09:34.792Z,6.47
2022-12-07T06:14:37.643Z,8.37
2022-12-07T06:19:40.722Z,5.77
2022-12-07T06:24:43.446Z,5.93
2022-12-07T06:29:45.901Z,5.80
2022-12-07T06:34:48.697Z,5.00
2022-12-07T06:39:51.026Z,4.23
2022-12-07T06:44:53.389Z,4.93
2022-12-07T06:49:55.803Z,5.10
2022-12-07T06:54:58.303Z,3.80
2022-12-07T07:00:01.315Z,6.87
2022-12-07T07:05:04.462Z,9.13
2022-12-07T07:10:07.474Z,5.70
2022-12-07T07:15:10.875Z,6.43
2022-12-07T07:20:13.965Z,6.17
2022-12-07T07:25:16.744Z,5.73
2022-12-07T07:30:19.105Z,7.03
2022-12-07T07:35:21.583Z,4.40
2022-12-07T07:40:24.687Z,4.57
2022-12-07T07:45:28.184Z,7.20
2022-12-07T07:50:30.608Z,6.77
2022-12-07T07:55:33.054Z,4.67
2022-12-07T08:00:35.652Z,5.77
2022-12-07T08:05:38.884Z,4.23
2022-12-07T08:10:41.263Z,8.67
2022-12-07T08:15:48.623Z,4.80
2022-12-07T08:20:51.065Z,5.60
2022-12-07T08:25:53.413Z,4.37
2022-12-07T08:31:07.707Z,3.60
2022-12-07T08:36:12.507Z,2.97
2022-12-07T08:41:14.942Z,3.60
2022-12-07T08:46:49.619Z,3.77
2022-12-07T08:51:52.370Z,2.87
2022-12-07T08:56:59.346Z,3.93
2022-12-07T09:02:02.485Z,3.40
2022-12-07T09:07:05.379Z,4.97
2022-12-07T09:12:07.958Z,9.03
2022-12-07T09:17:12.244Z,5.63
2022-12-07T09:22:14.785Z,4.13
2022-12-07T09:27:18.771Z,5.40
2022-12-07T09:32:21.350Z,10.97
2022-12-07T09:37:23.839Z,9.60
2022-12-07T09:42:28.841Z,7.20
2022-12-07T09:47:31.594Z,8.90
2022-12-07T09:52:38.733Z,5.27
2022-12-07T09:57:42.394Z,8.73
2022-12-07T10:02:54.304Z,2.33
2022-12-07T10:07:57.026Z,4.53
2022-12-07T10:13:02.503Z,3.70
2022-12-07T10:18:04.952Z,10.30
2022-12-07T10:23:16.291Z,4.07
2022-12-07T10:28:19.519Z,5.80
2022-12-07T10:33:32.161Z,10.33
2022-12-07T10:38:34.584Z,6.67
2022-12-07T10:43:36.974Z,4.90
2022-12-07T10:48:58.154Z,3.67
2022-12-07T10:54:25.470Z,9.97
2022-12-07T11:00:01.301Z,5.97
2022-12-07T11:05:23.627Z,4.97
2022-12-07T11:10:31.835Z,3.43
2022-12-07T11:16:02.211Z,5.03
2022-12-07T11:21:42.143Z,5.63
2022-12-07T11:27:16.377Z,9.97
2022-12-07T11:32:33.974Z,5.23
2022-12-07T11:43:11.309Z,10.63
2022-12-07T11:48:23.773Z,3.63
2022-12-07T11:53:56.776Z,5.40
2022-12-07T11:59:18.731Z,7.47
2022-12-07T12:04:59.543Z,5.10
2022-12-07T12:10:26.482Z,7.67
2022-12-07T12:15:53.218Z,5.97
2022-12-07T12:21:19.878Z,3.30
2022-12-07T12:26:28.355Z,7.37
2022-12-07T12:31:40.729Z,8.10
2022-12-07T12:36:43.948Z,4.13
2022-12-07T12:41:49.101Z,7.80
2022-12-07T12:46:58.352Z,5.67
2022-12-07T12:52:10.061Z,2.90
2022-12-07T12:57:27.749Z,5.73
2022-12-07T13:02:38.360Z,4.90
2022-12-07T13:07:50.886Z,4.57
2022-12-07T13:13:20.752Z,5.13
2022-12-07T13:18:29.062Z,2.30
2022-12-07T13:23:55.308Z,3.40
2022-12-07T13:29:18.054Z,4.43
2022-12-07T13:34:40.995Z,3.17
2022-12-07T13:39:57.834Z,1.20
2022-12-07T13:45:02.578Z,3.70
2022-12-07T13:50:23.730Z,4.60
2022-12-07T13:55:26.644Z,4.47
2022-12-07T14:00:30.729Z,2.73
2022-12-07T14:05:36.735Z,6.00
2022-12-07T14:10:50.117Z,4.97
2022-12-07T14:15:53.293Z,2.63
2022-12-07T14:21:24.393Z,2.60
2022-12-07T14:26:26.861Z,4.90
2022-12-07T14:31:30.727Z,4.20
2022-12-07T14:36:33.871Z,4.57
2022-12-07T14:41:54.382Z,5.03
2022-12-07T14:57:50.292Z,6.03
2022-12-07T15:02:53.674Z,4.03
2022-12-07T15:07:56.189Z,3.87
2022-12-07T15:13:18.750Z,2.17
2022-12-07T15:18:22.372Z,6.33
2022-12-07T15:23:24.825Z,3.97
2022-12-07T15:28:27.325Z,2.00
2022-12-07T15:33:30.048Z,4.93
2022-12-07T15:39:05.096Z,2.13
2022-12-07T15:44:13.710Z,3.83
2022-12-07T15:49:18.539Z,2.23
2022-12-07T15:54:23.873Z,1.63
2022-12-07T15:59:27.878Z,5.17
2022-12-07T16:04:30.869Z,4.67
2022-12-07T16:09:33.399Z,4.50
2022-12-07T16:14:36.424Z,3.13
2022-12-07T16:19:39.384Z,1.90
2022-12-07T16:24:41.855Z,3.33
2022-12-07T16:29:44.254Z,1.30
2022-12-07T16:34:46.746Z,1.40
2022-12-07T16:39:49.025Z,3.07
2022-12-07T16:44:51.425Z,0.83
2022-12-07T16:49:53.942Z,3.67
2022-12-07T16:54:56.368Z,5.10
2022-12-07T16:59:58.887Z,9.30
2022-12-07T17:05:01.562Z,2.77
2022-12-07T17:10:04.939Z,4.83
2022-12-07T17:15:19.569Z,5.60
2022-12-07T17:20:24.541Z,5.30
2022-12-07T17:25:26.901Z,6.50
2022-12-07T17:30:29.347Z,4.90
2022-12-07T17:35:31.758Z,5.83
2022-12-07T17:40:34.164Z,3.33
2022-12-07T17:45:38.167Z,4.57
2022-12-07T17:50:59.236Z,4.83
2022-12-07T17:56:27.466Z,18.93
2022-12-07T18:01:24.909Z,16.20
2022-12-07T18:06:28.352Z,11.33
2022-12-07T18:11:31.141Z,14.67
2022-12-07T18:16:35.624Z,12.63
2022-12-07T18:21:38.190Z,13.90
2022-12-07T18:26:41.850Z,13.87
2022-12-07T18:31:47.388Z,8.87
2022-12-07T18:36:50.511Z,15.50
2022-12-07T18:41:52.937Z,19.40
2022-12-07T18:46:55.962Z,17.83
2022-12-07T18:51:58.315Z,17.97
2022-12-07T18:57:00.785Z,18.90
2022-12-07T19:02:03.579Z,19.00
2022-12-07T19:07:06.004Z,17.70
2022-12-07T19:12:14.131Z,17.70
2022-12-07T19:17:17.096Z,7.50
2022-12-07T19:22:21.979Z,10.43
2022-12-07T19:27:25.059Z,5.67
2022-12-07T19:32:28.533Z,7.97
2022-12-07T19:37:31.167Z,10.80
2022-12-07T19:42:35.936Z,8.80
2022-12-07T19:47:38.310Z,10.10
2022-12-07T19:52:40.747Z,7.70
2022-12-07T19:57:43.162Z,13.53
2022-12-07T20:02:45.755Z,17.13
2022-12-07T20:07:52.119Z,15.90
2022-12-07T20:13:19.582Z,15.70
2022-12-07T20:18:22.121Z,15.40
2022-12-07T20:23:30.304Z,13.10
2022-12-07T20:28:36.629Z,13.43
2022-12-07T20:33:38.966Z,18.80
2022-12-07T20:38:42.322Z,18.97
2022-12-07T20:43:44.709Z,19.20
2022-12-07T20:48:47.087Z,18.27
2022-12-07T20:53:49.484Z,16.27
2022-12-07T20:58:51.888Z,18.27
2022-12-07T21:03:55.699Z,18.13
2022-12-07T21:09:00.226Z,15.07
2022-12-07T21:14:03.018Z,15.30
2022-12-07T21:19:05.518Z,12.73
2022-12-07T21:24:08.628Z,8.87
2022-12-07T21:29:10.954Z,10.30
2022-12-07T21:34:13.377Z,14.33
2022-12-07T21:39:15.798Z,12.77
2022-12-07T21:44:18.218Z,5.20
2022-12-07T21:49:20.650Z,13.60
2022-12-07T21:54:26.029Z,10.17
2022-12-07T21:59:28.990Z,7.10
2022-12-07T22:04:31.429Z,7.47
2022-12-07T22:09:33.936Z,8.00
2022-12-07T22:14:55.152Z,7.03
2022-12-07T22:19:58.090Z,6.80
2022-12-07T22:25:00.625Z,6.17
2022-12-07T22:30:03.801Z,6.07
2022-12-07T22:35:06.484Z,8.63
2022-12-07T22:40:09.577Z,5.47
2022-12-07T22:45:11.984Z,8.90
2022-12-07T22:50:14.261Z,9.63
2022-12-07T22:55:16.657Z,8.63
2022-12-07T23:00:19.673Z,10.37
2022-12-07T23:05:22.064Z,8.67
2022-12-07T23:10:24.608Z,7.93
2022-12-07T23:15:27.130Z,3.93
2022-12-07T23:20:30.233Z,11.53
2022-12-07T23:25:33.082Z,7.37
2022-12-07T23:30:35.447Z,8.23
2022-12-07T23:35:38.174Z,5.93
2022-12-07T23:40:40.490Z,5.40
2022-12-07T23:45:46.472Z,6.37
2022-12-07T23:50:48.911Z,9.10
2022-12-07T23:55:51.550Z,4.37
